Portada
METAR-TAF:

METAR-TAF

Aeropuertos :

Aeropuerto Internacional Maurice Bishop

St. George's, Granada

latitud: 12-00N, longitud: 061-47W, altitud: 6 m

Observación

El informe se hizo hace 22 minutos, a las 04:00 UTC
Viento 8 kt del este
Temperatura 25°C
Humedad 74%
Presión 1016 hPa
Visibilidad 10 km o más
Escasas nubes a una altura de 1800 ft

METAR: TGPY 180400Z 08008KT 9999 FEW018 25/20 Q1016 NOSIG

Hora: 00:22 (04:22 UTC)

Pronóstico

El informe se hizo hace 6 horas y 47 minutos, a las 21:35 UTC
Pronóstico válido del 18 a las 00 UTC al 18 a las 24 UTC
Viento 12 kt del este
Visibilidad 10 km o más
Escasas nubes a una altura de 1900 ft
Evolucionando progresivamente
del 18 a las 10 UTC al 18 a las 12 UTC
Viento 15 kt del este
Nubes dispersas a una altura de 1800 ft

TAF: TGPY 172135Z 1800/1824 08012KT 9999 FEW019 BECMG 1810/1812 10015KT SCT018

Observaciones y pronósticos meteorológicos de más de 4000 aeropuertos (mensajes METAR y TAF).

Los puntos amarillos y rojos representan las estaciones disponibles.

Ponga el ratón en el punto deseado para ver el nombre de la estación.

Haga clic para ver las observaciones y los pronósticos meteorológicos.

Para cambiar el mapa : haga clic en los botones verdes con una cruz de color negro para hacer un zoom, en el botón verde con un guión para alejar o en las flechas verdes para mapas adyacentes.


METAR-TAF: